Portada
METAR-TAF:

METAR-TAF

Aeroports :

Iakutsk, Rússia

latitud: 62-01N, longitud: 129-43E, altitud: 103 m

Observació

L'informe es va fer fa 38 minuts, a les 02:00 UTC
Vent 6 kt del Oest
Temperatura -24°C
Humitat 76%
Pressió 1020 hPa
Visibilitat 10 km o més
sense núvols per sota de 1500 mi sense presència de cumulonimbus.

METAR: UEEE 160200Z 27003MPS CAVOK M24/M27 Q1020 R23L/450155 NOSIG RMK QFE756

Hora: 11:38 (02:38 UTC)

Pronòstic

L'informe es va fer fa 3 hores i 38 minuts, a les 23:00 UTC
Pronòstic vàlid del 16 a les 00 UTC al 17 a les 06 UTC
Vent 6 kt del Oest amb ràfegues de 16 kt
Visibilitat 10 km o més
Núvols disperses a una alçada de 3000 ft
Cel ennuvolat a una alçada de 10000 ft
Temporalment
l' 16 a les 00 UTC al 16 a les 03 UTC
Visibilitat: 1000 m
a una alçada de 400 ft
neu, boirina

TAF: UEEE 152300Z 1600/1706 26003G08MPS 9999 SCT030 BKN100 TEMPO 1600/1603 1000 SN BR VV004

Observacions i pronòstics meteorològics de més de 4000 aeroports (METAR i TAF).

Les estacions disponibles són els punts grocs i vermells al mapa.

Posi el ratolí al punt desitjat per veure el nom de l'estació.

Feu clic per veure les observacions i els pronòstics meteorològics.

Per canviar el mapa: feu clic els botons verds amb una creu de color negre per apropar; al botó verd amb un guió per allunyar la imatge; o en les fletxes verdes per a mapes adjacents.


METAR-TAF: